Terminal Aerodrome Forecast
Issued by NWS

Home | Current Version | Previous Version | Text Only | Print | Product List | Glossary On
Versions: 1 2 3 4 5 6 7 8 9 10 11 12 13 14 15
000
FTUS43 KFGF 220500
TAFTVF
TAF
KTVF 220537Z 2206/2306 13008KT P6SM OVC008
     FM221000 14009KT 4SM BR OVC003
     FM221900 10008KT 4SM -RASN OVC005
     FM230000 08005KT 3SM -SN OVC005
      AMD LTD TO CLD VIS AND WIND=

USA.gov is the U.S. government's official web portal to all federal, state and local government web resources and services.